Time,TemperatureF,DewpointF,PressureIn,WindDirection,WindDirectionDegrees,WindSpeedMPH,WindSpeedGustMPH,Humidity,HourlyPrecipIn,Conditions,Clouds,dailyrainin,SoftwareType,DateUTC
2013-03-09 00:00:00,27.0,23.6,30.40,ENE,68,0.0,0.0,87,0.00,,SKC,0.00,VWS V14.01,2013-03-09 05:00:00,
2013-03-09 00:08:00,27.9,25.0,30.42,ENE,65,0.0,0.0,87,0.00,,,0.00,weatherlink.com 1.10,2013-03-09 05:08:00,
2013-03-09 00:23:00,28.3,25.0,30.41,ENE,72,0.0,1.0,87,0.00,,,0.00,weatherlink.com 1.10,2013-03-09 05:23:00,
2013-03-09 00:30:00,27.4,24.3,30.40,ENE,68,0.0,0.0,88,0.00,,SKC,0.00,VWS V14.01,2013-03-09 05:30:00,
2013-03-09 00:38:00,27.8,24.0,30.41,ENE,72,0.0,0.0,87,0.00,,,0.00,weatherlink.com 1.10,2013-03-09 05:38:00,
2013-03-09 00:53:00,27.4,24.0,30.41,ENE,72,0.0,0.0,87,0.00,,,0.00,weatherlink.com 1.10,2013-03-09 05:53:00,
2013-03-09 01:00:00,27.1,24.0,30.40,ENE,68,0.0,0.0,88,0.00,,SKC,0.00,VWS V14.01,2013-03-09 06:00:00,
2013-03-09 01:08:00,27.1,24.0,30.40,ENE,72,0.0,0.0,87,0.00,,,0.00,weatherlink.com 1.10,2013-03-09 06:08:00,
2013-03-09 01:23:00,27.4,24.0,30.40,ENE,72,0.0,0.0,88,0.00,,,0.00,weatherlink.com 1.10,2013-03-09 06:23:00,
2013-03-09 01:30:00,27.1,24.0,30.39,ENE,68,0.0,1.0,88,0.00,,SKC,0.00,VWS V14.01,2013-03-09 06:30:00,
2013-03-09 01:38:00,27.4,24.0,30.40,ENE,72,0.0,0.0,88,0.00,,,0.00,weatherlink.com 1.10,2013-03-09 06:38:00,
2013-03-09 01:53:00,27.1,24.0,30.40,ENE,72,0.0,0.0,88,0.00,,,0.00,weatherlink.com 1.10,2013-03-09 06:53:00,
2013-03-09 02:00:00,27.9,25.1,30.36,ENE,68,1.0,6.0,89,0.00,,SKC,0.00,VWS V14.01,2013-03-09 07:00:00,
2013-03-09 02:08:00,27.0,24.0,30.39,ENE,72,0.0,0.0,88,0.00,,,0.00,weatherlink.com 1.10,2013-03-09 07:08:00,
2013-03-09 02:23:00,27.0,24.0,30.39,ENE,72,0.0,1.0,88,0.00,,,0.00,weatherlink.com 1.10,2013-03-09 07:23:00,
2013-03-09 02:30:00,30.0,26.6,30.35,East,90,4.0,7.0,87,0.00,,SKC,0.00,VWS V14.01,2013-03-09 07:30:00,
2013-03-09 02:38:00,27.3,25.0,30.38,ENE,72,0.0,1.0,89,0.00,,,0.00,weatherlink.com 1.10,2013-03-09 07:38:00,
2013-03-09 02:53:00,27.4,25.0,30.37,ENE,72,3.0,3.0,89,0.00,,,0.00,weatherlink.com 1.10,2013-03-09 07:53:00,
2013-03-09 03:00:00,30.0,26.3,30.34,East,90,4.0,7.0,86,0.00,,SKC,0.00,VWS V14.01,2013-03-09 08:00:00,
2013-03-09 03:08:00,28.6,26.0,30.36,East,89,2.0,7.0,89,0.00,,,0.00,weatherlink.com 1.10,2013-03-09 08:08:00,
2013-03-09 03:23:00,29.8,27.0,30.35,East,95,3.0,6.0,88,0.00,,,0.00,weatherlink.com 1.10,2013-03-09 08:23:00,
2013-03-09 03:30:00,28.6,25.0,30.35,SE,135,1.0,5.0,86,0.00,,SKC,0.00,VWS V14.01,2013-03-09 08:30:00,
2013-03-09 03:38:00,29.9,26.0,30.35,East,89,3.0,6.0,86,0.00,,,0.00,weatherlink.com 1.10,2013-03-09 08:38:00,
2013-03-09 03:53:00,29.9,26.0,30.34,ESE,103,3.0,7.0,86,0.00,,,0.00,weatherlink.com 1.10,2013-03-09 08:53:00,
2013-03-09 04:00:00,28.8,25.4,30.35,ESE,112,2.0,4.0,87,0.00,,SKC,0.00,VWS V14.01,2013-03-09 09:00:00,
2013-03-09 04:08:00,29.6,26.0,30.34,ESE,121,3.0,7.0,86,0.00,,,0.00,weatherlink.com 1.10,2013-03-09 09:08:00,
2013-03-09 04:23:00,28.8,25.0,30.35,SSE,154,0.0,2.0,86,0.00,,,0.00,weatherlink.com 1.10,2013-03-09 09:23:00,
2013-03-09 04:30:00,27.9,24.5,30.35,SE,135,1.0,4.0,87,0.00,,SKC,0.00,VWS V14.01,2013-03-09 09:30:00,
2013-03-09 04:38:00,28.4,25.0,30.35,SE,140,1.0,2.0,87,0.00,,,0.00,weatherlink.com 1.10,2013-03-09 09:38:00,
2013-03-09 04:53:00,28.7,25.0,30.34,ESE,108,3.0,4.0,87,0.00,,,0.00,weatherlink.com 1.10,2013-03-09 09:53:00,
2013-03-09 05:00:00,27.9,24.8,30.35,SE,135,2.0,4.0,88,0.00,,SKC,0.00,VWS V14.01,2013-03-09 10:00:00,
2013-03-09 05:08:00,28.5,25.0,30.35,SE,126,1.0,3.0,87,0.00,,,0.00,weatherlink.com 1.10,2013-03-09 10:08:00,
2013-03-09 05:23:00,28.0,25.0,30.35,SE,135,1.0,2.0,87,0.00,,,0.00,weatherlink.com 1.10,2013-03-09 10:23:00,
2013-03-09 05:30:00,28.7,25.3,30.34,ESE,112,4.0,7.0,87,0.00,,SKC,0.00,VWS V14.01,2013-03-09 10:30:00,
2013-03-09 05:38:00,27.8,24.0,30.35,SE,132,2.0,4.0,87,0.00,,,0.00,weatherlink.com 1.10,2013-03-09 10:38:00,
2013-03-09 05:53:00,27.8,25.0,30.35,SE,129,2.0,4.0,88,0.00,,,0.00,weatherlink.com 1.10,2013-03-09 10:53:00,
2013-03-09 06:00:00,29.2,25.8,30.33,ESE,112,4.0,9.0,87,0.00,,SKC,0.00,VWS V14.01,2013-03-09 11:00:00,
2013-03-09 06:08:00,28.1,25.0,30.35,SE,126,3.0,5.0,88,0.00,,,0.00,weatherlink.com 1.10,2013-03-09 11:08:00,
2013-03-09 06:23:00,28.6,26.0,30.34,ESE,115,4.0,5.0,88,0.00,,,0.00,weatherlink.com 1.10,2013-03-09 11:23:00,
2013-03-09 06:30:00,30.5,26.5,30.33,East,90,6.0,11.0,85,0.00,,SKC,0.00,VWS V14.01,2013-03-09 11:30:00,
2013-03-09 06:38:00,28.4,25.0,30.34,SE,134,3.0,4.0,87,0.00,,,0.00,weatherlink.com 1.10,2013-03-09 11:38:00,
2013-03-09 06:54:00,28.8,25.0,30.34,East,101,6.0,7.0,87,0.00,,,0.00,weatherlink.com 1.10,2013-03-09 11:54:00,
2013-03-09 07:00:00,31.4,27.1,30.33,ESE,112,8.0,13.0,84,0.00,,SKC,0.00,VWS V14.01,2013-03-09 12:00:00,
2013-03-09 07:09:00,29.7,26.0,30.33,East,95,8.0,10.0,86,0.00,,,0.00,weatherlink.com 1.10,2013-03-09 12:09:00,
2013-03-09 07:24:00,30.2,26.0,30.33,East,93,6.0,10.0,85,0.00,,,0.00,weatherlink.com 1.10,2013-03-09 12:24:00,
2013-03-09 07:30:00,32.0,27.7,30.33,ESE,112,7.0,10.0,84,0.00,,SKC,0.00,VWS V14.01,2013-03-09 12:30:00,
2013-03-09 07:39:00,30.6,26.0,30.33,East,96,8.0,11.0,84,0.00,,,0.00,weatherlink.com 1.10,2013-03-09 12:39:00,
2013-03-09 07:54:00,31.1,27.0,30.33,ESE,105,9.0,13.0,84,0.00,,,0.00,weatherlink.com 1.10,2013-03-09 12:54:00,
2013-03-09 08:00:00,33.0,28.4,30.33,ESE,112,6.0,10.0,83,0.00,,SKC,0.00,VWS V14.01,2013-03-09 13:00:00,
2013-03-09 08:09:00,31.6,27.0,30.32,ESE,103,7.0,10.0,84,0.00,,,0.00,weatherlink.com 1.10,2013-03-09 13:09:00,
2013-03-09 08:24:00,31.8,28.0,30.33,ESE,105,5.0,10.0,84,0.00,,,0.00,weatherlink.com 1.10,2013-03-09 13:24:00,
2013-03-09 08:30:00,34.4,29.5,30.33,ESE,112,6.0,11.0,82,0.00,,SKC,0.00,VWS V14.01,2013-03-09 13:30:00,
2013-03-09 08:39:00,32.1,28.0,30.33,ESE,119,4.0,9.0,84,0.00,,,0.00,weatherlink.com 1.10,2013-03-09 13:39:00,
2013-03-09 08:54:00,32.5,28.0,30.33,ESE,107,9.0,10.0,83,0.00,,,0.00,weatherlink.com 1.10,2013-03-09 13:54:00,
2013-03-09 09:00:00,36.3,30.4,30.33,ESE,112,3.0,9.0,79,0.00,,SKC,0.00,VWS V14.01,2013-03-09 14:00:00,
2013-03-09 09:09:00,33.2,28.0,30.33,ESE,106,7.0,11.0,82,0.00,,,0.00,weatherlink.com 1.10,2013-03-09 14:09:00,
2013-03-09 09:24:00,33.7,28.0,30.32,ESE,105,7.0,10.0,81,0.00,,,0.00,weatherlink.com 1.10,2013-03-09 14:24:00,
2013-03-09 09:30:00,35.9,29.7,30.30,ESE,112,6.0,13.0,78,0.00,,SKC,0.00,VWS V14.01,2013-03-09 14:30:00,
2013-03-09 09:39:00,34.8,30.0,30.34,ESE,123,2.0,7.0,81,0.00,,,0.00,weatherlink.com 1.10,2013-03-09 14:39:00,
2013-03-09 09:54:00,36.3,30.0,30.33,SE,144,1.0,7.0,78,0.00,,,0.00,weatherlink.com 1.10,2013-03-09 14:54:00,
2013-03-09 10:00:00,37.7,30.8,30.32,SSE,158,4.0,10.0,76,0.00,,SKC,0.00,VWS V14.01,2013-03-09 15:00:00,
2013-03-09 10:09:00,36.6,31.0,30.32,SE,132,1.0,9.0,79,0.00,,,0.00,weatherlink.com 1.10,2013-03-09 15:09:00,
2013-03-09 10:24:00,36.2,30.0,30.31,ESE,121,5.0,11.0,79,0.00,,,0.00,weatherlink.com 1.10,2013-03-09 15:24:00,
2013-03-09 10:30:00,38.4,31.8,30.31,SSE,158,2.0,7.0,77,0.00,,SKC,0.00,VWS V14.01,2013-03-09 15:30:00,
2013-03-09 10:39:00,36.9,31.0,30.31,ESE,105,7.0,13.0,79,0.00,,,0.00,weatherlink.com 1.10,2013-03-09 15:39:00,
2013-03-09 10:54:00,38.2,32.0,30.31,SE,139,4.0,8.0,77,0.00,,,0.00,weatherlink.com 1.10,2013-03-09 15:54:00,
2013-03-09 11:00:00,38.9,32.0,30.31,South,180,3.0,11.0,76,0.00,,SKC,0.00,VWS V14.01,2013-03-09 16:00:00,
2013-03-09 11:09:00,37.9,31.0,30.32,SSE,162,1.0,7.0,77,0.00,,,0.00,weatherlink.com 1.10,2013-03-09 16:09:00,
2013-03-09 11:24:00,38.3,32.0,30.32,South,171,1.0,6.0,77,0.00,,,0.00,weatherlink.com 1.10,2013-03-09 16:24:00,
2013-03-09 11:30:00,40.7,33.1,30.29,SE,135,3.0,9.0,74,0.00,,SKC,0.00,VWS V14.01,2013-03-09 16:30:00,
2013-03-09 11:39:00,38.7,32.0,30.31,SSW,194,5.0,7.0,77,0.00,,,0.00,weatherlink.com 1.10,2013-03-09 16:39:00,
2013-03-09 11:54:00,38.4,31.0,30.31,South,182,2.0,11.0,76,0.00,,,0.00,weatherlink.com 1.10,2013-03-09 16:54:00,
2013-03-09 12:00:00,40.8,33.5,30.27,ESE,112,7.0,10.0,75,0.00,,SKC,0.00,VWS V14.01,2013-03-09 17:00:00,
2013-03-09 12:09:00,39.2,32.0,30.31,SE,146,3.0,8.0,76,0.00,,,0.00,weatherlink.com 1.10,2013-03-09 17:09:00,
2013-03-09 12:24:00,40.5,32.0,30.30,ESE,123,4.0,8.0,73,0.00,,,0.00,weatherlink.com 1.10,2013-03-09 17:24:00,
2013-03-09 12:30:00,42.6,34.9,30.24,ESE,112,5.0,11.0,74,0.00,,SKC,0.00,VWS V14.01,2013-03-09 17:30:00,
2013-03-09 12:39:00,39.7,32.0,30.29,ESE,103,9.0,10.0,73,0.00,,,0.00,weatherlink.com 1.10,2013-03-09 17:39:00,
2013-03-09 12:54:00,40.2,33.0,30.28,ESE,111,2.0,10.0,74,0.00,,,0.00,weatherlink.com 1.10,2013-03-09 17:54:00,
2013-03-09 13:00:00,43.4,35.0,30.22,ESE,112,5.0,12.0,72,0.00,,SKC,0.00,VWS V14.01,2013-03-09 18:00:00,
2013-03-09 13:09:00,41.4,34.0,30.27,SE,130,1.0,10.0,75,0.00,,,0.00,weatherlink.com 1.10,2013-03-09 18:09:00,
2013-03-09 13:24:00,42.0,34.0,30.25,SE,125,5.0,11.0,73,0.00,,,0.00,weatherlink.com 1.10,2013-03-09 18:24:00,
2013-03-09 13:30:00,44.3,36.5,30.19,ESE,112,8.0,15.0,74,0.00,,SKC,0.00,VWS V14.01,2013-03-09 18:30:00,
2013-03-09 13:40:00,43.1,34.0,30.24,ESE,109,9.0,10.0,71,0.00,,,0.00,weatherlink.com 1.10,2013-03-09 18:40:00,
2013-03-09 13:55:00,43.6,35.0,30.23,SE,145,6.0,10.0,71,0.00,,,0.00,weatherlink.com 1.10,2013-03-09 18:55:00,
2013-03-09 14:00:00,45.4,36.6,30.17,ESE,112,7.0,18.0,71,0.00,,SKC,0.00,VWS V14.01,2013-03-09 19:00:00,
2013-03-09 14:10:00,43.3,35.0,30.21,ESE,109,10.0,14.0,73,0.00,,,0.00,weatherlink.com 1.10,2013-03-09 19:10:00,
2013-03-09 14:25:00,44.2,36.0,30.20,East,101,6.0,12.0,74,0.00,,,0.00,weatherlink.com 1.10,2013-03-09 19:25:00,
2013-03-09 14:30:00,45.7,36.1,30.17,ESE,112,7.0,15.0,69,0.00,,SKC,0.00,VWS V14.01,2013-03-09 19:30:00,
2013-03-09 14:40:00,44.2,36.0,30.19,ESE,104,10.0,18.0,74,0.00,,,0.00,weatherlink.com 1.10,2013-03-09 19:40:00,
2013-03-09 14:55:00,45.7,37.0,30.18,SE,135,7.0,10.0,72,0.00,,,0.00,weatherlink.com 1.10,2013-03-09 19:55:00,
2013-03-09 15:00:00,45.9,36.0,30.16,SE,135,6.0,13.0,68,0.00,,SKC,0.00,VWS V14.01,2013-03-09 20:00:00,
2013-03-09 15:10:00,45.3,36.0,30.17,ESE,117,7.0,13.0,70,0.00,,,0.00,weatherlink.com 1.10,2013-03-09 20:10:00,
2013-03-09 15:25:00,45.4,37.0,30.17,ESE,119,7.0,15.0,72,0.00,,,0.00,weatherlink.com 1.10,2013-03-09 20:25:00,
2013-03-09 15:30:00,45.8,36.6,30.15,SE,135,3.0,10.0,70,0.00,,SKC,0.00,VWS V14.01,2013-03-09 20:30:00,
2013-03-09 15:40:00,45.8,36.0,30.16,ESE,106,7.0,12.0,68,0.00,,,0.00,weatherlink.com 1.10,2013-03-09 20:40:00,
2013-03-09 15:55:00,45.8,36.0,30.16,SE,124,5.0,13.0,68,0.00,,,0.00,weatherlink.com 1.10,2013-03-09 20:55:00,
2013-03-09 16:00:00,45.0,36.5,30.13,SE,135,2.0,8.0,72,0.00,,SKC,0.00,VWS V14.01,2013-03-09 21:00:00,
2013-03-09 16:10:00,45.7,36.0,30.15,ESE,118,4.0,12.0,69,0.00,,,0.00,weatherlink.com 1.10,2013-03-09 21:10:00,
2013-03-09 16:25:00,45.7,36.0,30.15,ESE,102,0.0,8.0,69,0.00,,,0.00,weatherlink.com 1.10,2013-03-09 21:25:00,
2013-03-09 16:30:00,43.2,36.5,30.12,SSE,158,2.0,8.0,77,0.00,,SKC,0.00,VWS V14.01,2013-03-09 21:30:00,
2013-03-09 16:40:00,45.8,37.0,30.14,ESE,123,3.0,5.0,70,0.00,,,0.00,weatherlink.com 1.10,2013-03-09 21:40:00,
2013-03-09 16:55:00,45.4,36.0,30.13,SE,138,4.0,7.0,69,0.00,,,0.00,weatherlink.com 1.10,2013-03-09 21:55:00,
2013-03-09 17:00:00,42.8,36.4,30.10,ESE,112,4.0,8.0,78,0.00,,SKC,0.00,VWS V14.01,2013-03-09 22:00:00,
2013-03-09 17:10:00,44.2,36.0,30.13,SSE,156,2.0,8.0,74,0.00,,,0.00,weatherlink.com 1.10,2013-03-09 22:10:00,
2013-03-09 17:25:00,43.6,37.0,30.13,SSE,147,2.0,5.0,76,0.00,,,0.00,weatherlink.com 1.10,2013-03-09 22:25:00,
2013-03-09 17:30:00,41.9,35.9,30.10,ESE,112,3.0,9.0,79,0.00,,SKC,0.00,VWS V14.01,2013-03-09 22:30:00,
2013-03-09 17:40:00,43.0,36.0,30.11,ESE,111,3.0,6.0,77,0.00,,,0.00,weatherlink.com 1.10,2013-03-09 22:40:00,
2013-03-09 17:55:00,43.0,36.0,30.11,ESE,102,5.0,7.0,77,0.00,,,0.00,weatherlink.com 1.10,2013-03-09 22:55:00,
2013-03-09 18:00:00,41.4,36.0,30.11,SE,135,1.0,5.0,81,0.01,,SKC,0.01,VWS V14.01,2013-03-09 23:00:00,
2013-03-09 18:10:00,42.5,36.0,30.11,ESE,120,4.0,9.0,78,0.00,,,0.00,weatherlink.com 1.10,2013-03-09 23:10:00,
2013-03-09 18:25:00,42.3,36.0,30.11,ESE,116,3.0,4.0,78,0.00,,,0.00,weatherlink.com 1.10,2013-03-09 23:25:00,
2013-03-09 18:30:00,39.8,36.0,30.10,ESE,112,3.0,7.0,86,0.04,,SKC,0.04,VWS V14.01,2013-03-09 23:30:00,
2013-03-09 18:40:00,42.0,36.0,30.11,SE,135,0.0,5.0,79,0.00,,,0.00,weatherlink.com 1.10,2013-03-09 23:40:00,
2013-03-09 18:55:00,41.8,36.0,30.11,SSE,147,1.0,4.0,80,0.00,,,0.00,weatherlink.com 1.10,2013-03-09 23:55:00,
2013-03-09 19:00:00,40.4,36.8,30.08,ESE,112,5.0,9.0,87,0.07,,SKC,0.07,VWS V14.01,2013-03-10 00:00:00,
2013-03-09 19:10:00,41.1,36.0,30.11,SE,130,4.0,4.0,82,0.02,,,0.02,weatherlink.com 1.10,2013-03-10 00:10:00,
2013-03-09 19:25:00,40.0,36.0,30.10,SE,132,3.0,7.0,85,0.03,,,0.03,weatherlink.com 1.10,2013-03-10 00:25:00,
2013-03-09 19:30:00,41.4,37.2,30.07,ESE,112,5.0,8.0,85,0.07,,SKC,0.07,VWS V14.01,2013-03-10 00:30:00,
2013-03-09 19:40:00,40.1,37.0,30.09,ESE,105,7.0,8.0,87,0.05,,,0.05,weatherlink.com 1.10,2013-03-10 00:40:00,
2013-03-09 19:55:00,40.6,37.0,30.09,SE,135,3.0,9.0,86,0.07,,,0.07,weatherlink.com 1.10,2013-03-10 00:55:00,
2013-03-09 20:00:00,41.7,36.9,30.07,ESE,112,4.0,7.0,83,0.07,,SKC,0.07,VWS V14.01,2013-03-10 01:00:00,
2013-03-09 20:10:00,40.7,37.0,30.08,ESE,103,3.0,5.0,87,0.05,,,0.07,weatherlink.com 1.10,2013-03-10 01:10:00,
2013-03-09 20:25:00,41.5,37.0,30.07,ESE,108,7.0,8.0,85,0.04,,,0.07,weatherlink.com 1.10,2013-03-10 01:25:00,
2013-03-09 20:30:00,41.3,36.5,30.06,ESE,112,4.0,7.0,83,0.06,,SKC,0.07,VWS V14.01,2013-03-10 01:30:00,
2013-03-09 20:40:00,41.9,37.0,30.07,ESE,103,5.0,7.0,84,0.02,,,0.07,weatherlink.com 1.10,2013-03-10 01:40:00,
2013-03-09 20:55:00,42.2,37.0,30.07,ESE,110,4.0,4.0,82,0.00,,,0.07,weatherlink.com 1.10,2013-03-10 01:55:00,
2013-03-09 21:00:00,40.7,36.0,30.05,ESE,112,6.0,9.0,83,0.03,,SKC,0.07,VWS V14.01,2013-03-10 02:00:00,
2013-03-09 21:10:00,41.1,36.0,30.07,ESE,113,2.0,4.0,83,0.00,,,0.07,weatherlink.com 1.10,2013-03-10 02:10:00,
2013-03-09 21:25:00,41.1,36.0,30.06,ESE,109,5.0,5.0,83,0.00,,,0.07,weatherlink.com 1.10,2013-03-10 02:25:00,
2013-03-09 21:30:00,41.1,35.7,30.03,ESE,112,6.0,9.0,81,0.00,,SKC,0.07,VWS V14.01,2013-03-10 02:30:00,
2013-03-09 21:40:00,41.1,36.0,30.06,ESE,114,5.0,8.0,82,0.00,,,0.07,weatherlink.com 1.10,2013-03-10 02:40:00,
2013-03-09 21:55:00,40.7,36.0,30.05,ESE,113,7.0,9.0,83,0.00,,,0.07,weatherlink.com 1.10,2013-03-10 02:55:00,
2013-03-09 22:00:00,38.6,33.9,30.02,ESE,112,5.0,8.0,83,0.00,,SKC,0.07,VWS V14.01,2013-03-10 03:00:00,
2013-03-09 22:10:00,40.5,36.0,30.04,ESE,102,4.0,7.0,83,0.00,,,0.07,weatherlink.com 1.10,2013-03-10 03:10:00,
2013-03-09 22:26:00,41.1,36.0,30.03,ESE,109,8.0,9.0,82,0.00,,,0.07,weatherlink.com 1.10,2013-03-10 03:26:00,
2013-03-09 22:30:00,39.3,34.3,30.01,ESE,112,4.0,7.0,82,0.00,,SKC,0.07,VWS V14.01,2013-03-10 03:30:00,
2013-03-09 22:41:00,40.0,35.0,30.02,ESE,116,7.0,8.0,81,0.00,,,0.07,weatherlink.com 1.10,2013-03-10 03:41:00,
2013-03-09 22:56:00,38.9,34.0,30.02,SE,138,5.0,7.0,83,0.00,,,0.07,weatherlink.com 1.10,2013-03-10 03:56:00,
2013-03-09 23:00:00,39.1,34.1,30.00,ESE,112,4.0,7.0,82,0.00,,SKC,0.00,VWS V14.01,2013-03-10 04:00:00,
2013-03-09 23:11:00,39.0,34.0,30.01,ESE,115,3.0,5.0,83,0.00,,,0.07,weatherlink.com 1.10,2013-03-10 04:11:00,
2013-03-09 23:26:00,39.3,34.0,30.01,East,101,5.0,5.0,82,0.00,,,0.07,weatherlink.com 1.10,2013-03-10 04:26:00,
2013-03-09 23:30:00,38.8,33.8,29.99,SE,135,3.0,6.0,82,0.00,,SKC,0.00,VWS V14.01,2013-03-10 04:30:00,
2013-03-09 23:41:00,40.0,35.0,30.00,ESE,121,5.0,7.0,81,0.00,,,0.07,weatherlink.com 1.10,2013-03-10 04:41:00,
2013-03-09 23:56:00,39.1,34.0,30.00,SE,125,3.0,5.0,81,0.00,,,0.07,weatherlink.com 1.10,2013-03-10 04:56:00,